CPX965 Details

Departure: Liège Airport (EBLG)
Arrival: Ramstein Air Force Base (ETAR)
Route: LAREP UN852 DIK
Notes: EMPTY | NON-REVENUE REPOSITIONING LEG


Current Weather Information
EBLG 181520Z 25010KT 9999 SCT036 06/02 Q1020 TEMPO 4500 SHRA
ETAR 181456Z 27010KT 9999 CLR 10/00 A3010 RMK AO2A SLP203 60000 T00961003 55001 $